Time;durP1;ratioP1;P1;durP2;ratioP2;P2;SDS_P1;SDS_P2;PMS_P1;PMS_P2;Temp;Humidity;BMP_temperature;BMP_pressure;BME280_temperature;BME280_humidity;BME280_pressure;Samples;Min_cycle;Max_cycle;Signal;HPM_P1;HPM_P2
2022/08/12 00:44:34;;;;;;;5.82;3.60;;;;;;;23.58;34.45;100101.78;4963288;28;20042;-88
2022/08/12 00:47:01;;;;;;;4.78;3.70;;;;;;;23.59;34.37;100098.06;4989169;28;20074;-82
2022/08/12 00:49:29;;;;;;;7.20;4.10;;;;;;;23.44;34.89;100097.47;4961974;28;20050;-82
2022/08/12 00:52:05;;;;;;;7.25;3.50;;;;;;;23.47;34.51;100095.16;4947836;28;20141;-83
2022/08/12 00:54:46;;;;;;;4.55;3.88;;;;;;;23.26;35.32;100106.28;4967305;28;20402;-82
2022/08/12 00:57:20;;;;;;;6.07;3.45;;;;;;;23.32;34.89;100100.84;5001049;28;20483;-82
2022/08/12 00:59:49;;;;;;;6.57;3.33;;;;;;;23.38;35.21;100099.13;4964309;28;20149;-83
2022/08/12 01:02:33;;;;;;;7.28;3.70;;;;;;;23.29;34.62;100097.72;4941571;28;20043;-82
2022/08/12 01:13:24;;;;;;;8.55;3.90;;;;;;;23.26;35.49;100100.88;4931646;28;20057;-84
2022/08/12 01:15:58;;;;;;;5.32;3.58;;;;;;;23.13;35.65;100102.56;4950701;28;20069;-90
2022/08/12 01:18:28;;;;;;;4.28;3.47;;;;;;;23.14;35.82;100104.22;4946916;28;20112;-89
2022/08/12 01:21:32;;;;;;;4.43;3.63;;;;;;;22.87;36.38;100106.09;4972826;28;20052;-87
2022/08/12 01:24:35;;;;;;;6.68;3.50;;;;;;;22.87;36.33;100113.38;4936846;28;20037;-90
2022/08/12 01:27:03;;;;;;;5.25;3.55;;;;;;;22.97;36.15;100113.81;4921303;28;20045;-83
2022/08/12 01:29:40;;;;;;;4.88;3.90;;;;;;;22.84;36.81;100111.09;4984651;28;20500;-83
2022/08/12 01:32:10;;;;;;;5.82;3.90;;;;;;;22.86;36.36;100115.25;4980250;28;20050;-83
2022/08/12 01:34:44;;;;;;;4.75;3.58;;;;;;;22.80;36.61;100115.28;4962146;28;20114;-83
2022/08/12 01:37:12;;;;;;;6.15;3.90;;;;;;;22.84;36.71;100117.34;4969797;28;20430;-83
2022/08/12 01:39:42;;;;;;;5.22;3.90;;;;;;;22.79;36.54;100113.59;4959543;28;20073;-82
2022/08/12 01:42:33;;;;;;;5.70;4.20;;;;;;;22.78;36.72;100118.19;4955498;28;20458;-83
2022/08/12 01:45:00;;;;;;;8.00;4.70;;;;;;;22.87;36.23;100105.25;5026946;28;20045;-83
2022/08/12 01:47:41;;;;;;;7.10;3.75;;;;;;;22.85;36.38;100100.06;4994853;28;21301;-90
2022/08/12 01:50:15;;;;;;;7.32;4.72;;;;;;;22.86;36.32;100095.47;4974151;28;20045;-85
2022/08/12 01:52:54;;;;;;;6.97;4.22;;;;;;;22.56;36.17;100090.47;4992773;28;20092;-90
2022/08/12 01:55:31;;;;;;;5.10;3.90;;;;;;;22.74;36.22;100095.25;5022707;28;20053;-89
2022/08/12 01:58:14;;;;;;;4.32;3.92;;;;;;;22.50;37.40;100091.31;5018429;28;20037;-89
2022/08/12 02:00:47;;;;;;;6.70;4.28;;;;;;;22.64;36.46;100090.25;4950115;28;20482;-89
2022/08/12 02:13:21;;;;;;;5.07;3.55;;;;;;;22.52;37.29;100087.38;4972797;28;20082;-88
2022/08/12 02:16:14;;;;;;;6.97;4.15;;;;;;;22.57;36.76;100084.03;4977917;28;20096;-89
2022/08/12 02:19:19;;;;;;;6.03;3.97;;;;;;;22.49;36.50;100084.22;4963990;28;20096;-90
2022/08/12 02:22:27;;;;;;;4.38;3.83;;;;;;;22.40;37.31;100083.59;4944781;28;20105;-89
2022/08/12 02:25:25;;;;;;;4.85;3.70;;;;;;;22.30;37.58;100080.47;4953404;28;20129;-88
2022/08/12 02:27:54;;;;;;;7.47;3.85;;;;;;;22.49;36.85;100081.50;4955661;28;20107;-89
2022/08/12 02:30:30;;;;;;;13.10;4.75;;;;;;;22.39;37.40;100083.81;5021852;28;20056;-88
2022/08/12 02:33:08;;;;;;;8.15;3.88;;;;;;;22.42;37.68;100086.94;4999664;28;20042;-83
2022/08/12 02:35:36;;;;;;;5.10;3.33;;;;;;;22.50;36.97;100085.91;4972723;28;20038;-89
2022/08/12 02:38:05;;;;;;;8.15;3.55;;;;;;;22.56;36.32;100079.66;5001833;28;20061;-89
2022/08/12 02:40:35;;;;;;;6.75;3.28;;;;;;;22.47;37.00;100084.44;5022647;28;20140;-89
2022/08/12 02:43:04;;;;;;;6.22;3.33;;;;;;;22.54;37.26;100079.88;5005064;28;20045;-82
2022/08/12 02:45:41;;;;;;;4.20;3.80;;;;;;;22.41;37.36;100082.56;4997434;28;20167;-90
2022/08/12 02:48:09;;;;;;;4.10;3.63;;;;;;;22.53;37.19;100077.38;4993288;28;20110;-91
2022/08/12 02:50:41;;;;;;;7.32;3.90;;;;;;;22.60;36.40;100067.38;5005106;28;20655;-89
2022/08/12 02:53:08;;;;;;;6.60;3.55;;;;;;;22.62;36.13;100073.41;5035942;28;20370;-89
2022/08/12 02:55:37;;;;;;;10.88;3.78;;;;;;;22.64;36.00;100065.91;5020516;28;20608;-90
2022/08/12 02:58:08;;;;;;;7.50;4.05;;;;;;;22.48;38.91;100067.16;5035419;28;20069;-82
2022/08/12 03:00:42;;;;;;;4.55;3.63;;;;;;;22.52;38.18;100071.13;5019940;28;20401;-83
2022/08/12 03:03:12;;;;;;;6.63;3.50;;;;;;;22.44;37.53;100068.63;5003591;28;20548;-82
2022/08/12 03:05:58;;;;;;;4.32;3.42;;;;;;;22.34;37.38;100065.50;5001324;28;20049;-89
2022/08/12 03:08:30;;;;;;;5.78;3.53;;;;;;;22.59;36.21;100057.56;4986144;28;20072;-88
2022/08/12 03:11:09;;;;;;;6.85;3.33;;;;;;;22.56;35.52;100063.41;5002520;28;20049;-83
2022/08/12 03:13:45;;;;;;;7.93;3.53;;;;;;;22.61;35.99;100068.22;4993213;28;20065;-82
2022/08/12 03:16:13;;;;;;;8.43;3.67;;;;;;;22.63;36.09;100066.97;5023918;28;20072;-82
2022/08/12 03:18:42;;;;;;;7.88;4.03;;;;;;;22.65;36.16;100067.59;4974463;28;20156;-83
2022/08/12 03:21:15;;;;;;;5.47;3.75;;;;;;;22.60;36.36;100063.84;5019811;28;20516;-83
2022/08/12 03:23:44;;;;;;;4.35;3.90;;;;;;;22.68;35.88;100069.88;5022137;28;20045;-82
2022/08/12 03:26:11;;;;;;;6.30;3.58;;;;;;;22.69;35.45;100068.81;5004251;28;20046;-83
2022/08/12 03:28:49;;;;;;;4.53;3.63;;;;;;;22.63;36.05;100064.25;4987729;28;20435;-83
2022/08/12 03:31:18;;;;;;;4.45;3.50;;;;;;;22.65;36.10;100064.06;4976569;28;20037;-83
2022/08/12 03:33:47;;;;;;;6.97;3.58;;;;;;;22.53;36.49;100061.97;5036445;28;20048;-83
2022/08/12 03:36:33;;;;;;;6.85;3.60;;;;;;;22.53;36.22;100056.53;5019041;28;20041;-90
2022/08/12 03:42:24;;;;;;;5.32;3.78;;;;;;;22.30;36.75;100059.66;4936541;28;20080;-88
2022/08/12 04:01:56;;;;;;;5.07;3.53;;;;;;;22.46;36.47;100077.34;4998595;28;20037;-83
2022/08/12 04:04:32;;;;;;;4.05;3.47;;;;;;;22.20;37.58;100075.47;5041142;28;20080;-86
2022/08/12 04:07:01;;;;;;;4.78;4.30;;;;;;;22.20;37.67;100077.34;5000472;28;20038;-84
2022/08/12 04:09:28;;;;;;;4.40;4.00;;;;;;;22.22;37.96;100080.69;5035436;28;20535;-85
2022/08/12 04:14:41;;;;;;;7.05;3.90;;;;;;;22.19;37.39;100078.34;5008471;28;20497;-83
2022/08/12 04:17:08;;;;;;;4.65;3.72;;;;;;;22.14;37.82;100087.09;5025053;28;20042;-84
2022/08/12 04:19:35;;;;;;;6.78;3.67;;;;;;;22.10;37.12;100086.63;5005795;28;20065;-84
2022/08/12 04:22:02;;;;;;;5.78;4.38;;;;;;;22.05;37.04;100083.72;5023846;28;20049;-83
2022/08/12 04:24:33;;;;;;;5.82;4.05;;;;;;;22.02;37.24;100092.25;5001734;28;20618;-83
2022/08/12 04:27:04;;;;;;;7.53;4.25;;;;;;;22.05;36.79;100094.53;4979984;28;20049;-83
2022/08/12 04:29:31;;;;;;;6.45;4.13;;;;;;;21.97;37.19;100096.59;4993850;28;20048;-83
2022/08/12 04:32:18;;;;;;;5.43;3.72;;;;;;;21.87;37.49;100091.59;4962353;28;20123;-84
2022/08/12 04:34:44;;;;;;;7.15;4.13;;;;;;;21.98;37.01;100093.72;5038885;28;20406;-84
2022/08/12 04:37:12;;;;;;;5.53;3.75;;;;;;;22.01;37.11;100092.47;5005213;28;20046;-84
2022/08/12 04:39:39;;;;;;;6.93;3.97;;;;;;;21.96;37.32;100092.25;5022066;28;20402;-84
2022/08/12 04:42:06;;;;;;;7.25;4.03;;;;;;;22.08;37.16;100090.59;5002502;28;20529;-84
2022/08/12 04:44:32;;;;;;;5.32;4.25;;;;;;;22.16;37.03;100085.00;5024298;28;20049;-84
2022/08/12 04:46:59;;;;;;;7.38;4.65;;;;;;;22.28;36.91;100093.38;5038783;28;20626;-85
2022/08/12 04:49:26;;;;;;;4.53;3.50;;;;;;;22.18;37.00;100092.91;5008982;28;20052;-85
2022/08/12 04:51:55;;;;;;;8.98;3.65;;;;;;;22.22;37.38;100095.03;4992620;28;20183;-84
2022/08/12 04:54:26;;;;;;;8.75;4.10;;;;;;;22.22;37.31;100103.16;5036688;28;20516;-85
2022/08/12 04:56:52;;;;;;;6.55;3.65;;;;;;;22.27;36.95;100097.13;5023339;28;20053;-85
2022/08/12 04:59:34;;;;;;;6.55;4.22;;;;;;;22.23;37.61;100093.97;5025525;28;20129;-85
2022/08/12 05:02:16;;;;;;;9.40;3.80;;;;;;;22.34;36.99;100089.84;4955971;28;20099;-85
2022/08/12 05:04:54;;;;;;;5.82;3.85;;;;;;;22.32;37.08;100097.34;5037188;28;20064;-85
2022/08/12 05:07:27;;;;;;;8.70;3.75;;;;;;;22.44;36.95;100095.69;4989534;28;20080;-86
2022/08/12 05:09:54;;;;;;;10.77;4.65;;;;;;;22.43;37.11;100090.47;5007402;28;20052;-85
2022/08/12 05:12:27;;;;;;;;;;;;;;;22.07;37.82;100088.94;5007236;28;20219;-84
2022/08/12 05:14:54;;;;;;;5.40;3.88;;;;;;;22.40;37.05;100089.03;4999802;28;19935;-83
2022/08/12 05:17:23;;;;;;;4.93;3.63;;;;;;;22.34;36.97;100087.16;5034920;28;20061;-84
2022/08/12 05:19:54;;;;;;;9.30;4.07;;;;;;;22.12;37.49;100089.16;5022311;28;20045;-84
2022/08/12 05:22:25;;;;;;;10.23;4.10;;;;;;;22.20;37.48;100102.50;5037167;28;20081;-84
2022/08/12 05:24:52;;;;;;;4.45;3.88;;;;;;;22.11;37.53;100092.91;4988815;28;20076;-84
2022/08/12 05:27:21;;;;;;;6.43;4.10;;;;;;;22.27;37.39;100097.94;5028937;28;20048;-84
2022/08/12 05:29:49;;;;;;;11.32;4.30;;;;;;;22.24;37.65;100109.19;5044765;28;20041;-84
2022/08/12 05:32:35;;;;;;;8.30;3.67;;;;;;;22.20;37.43;100107.09;5004916;28;20049;-83
2022/08/12 05:35:05;;;;;;;7.03;3.95;;;;;;;22.05;37.92;100109.94;5022510;28;20046;-83
2022/08/12 05:37:35;;;;;;;4.80;4.20;;;;;;;21.89;38.16;100122.78;5023891;28;20489;-84
2022/08/12 05:40:03;;;;;;;9.43;4.07;;;;;;;22.05;37.82;100115.34;5023717;28;20041;-83
2022/08/12 05:42:36;;;;;;;4.78;3.88;;;;;;;22.05;37.89;100118.88;4988172;28;20239;-83
2022/08/12 05:45:04;;;;;;;6.80;4.45;;;;;;;22.09;37.53;100120.16;5016429;28;20445;-84
2022/08/12 05:47:31;;;;;;;5.90;4.05;;;;;;;22.08;37.91;100123.91;5008039;28;20041;-84
2022/08/12 05:50:18;;;;;;;9.63;3.95;;;;;;;21.98;38.06;100134.28;4956886;28;20052;-85
2022/08/12 05:52:45;;;;;;;8.27;4.20;;;;;;;21.92;38.27;100134.25;5036052;28;20064;-85
2022/08/12 05:55:13;;;;;;;5.00;4.00;;;;;;;22.04;38.07;100122.63;4990961;28;20144;-84
2022/08/12 05:57:40;;;;;;;7.22;4.22;;;;;;;22.18;38.08;100125.34;5013005;28;20049;-84
2022/08/12 06:00:07;;;;;;;7.70;4.43;;;;;;;22.18;37.89;100128.88;5005064;28;20049;-85
2022/08/12 06:02:40;;;;;;;7.72;4.05;;;;;;;22.15;37.97;100123.06;4993461;28;20048;-84
2022/08/12 06:05:09;;;;;;;6.50;4.07;;;;;;;22.25;37.97;100128.94;5020877;28;20493;-87
2022/08/12 06:07:44;;;;;;;4.90;3.88;;;;;;;22.16;38.38;100127.44;5012865;28;20045;-88
2022/08/12 06:10:32;;;;;;;5.82;4.32;;;;;;;22.38;37.90;100130.84;5006637;28;20065;-84
2022/08/12 06:13:01;;;;;;;8.43;4.15;;;;;;;22.42;37.82;100127.53;5000415;28;20060;-87
2022/08/12 06:15:29;;;;;;;5.85;3.60;;;;;;;22.52;38.01;100127.13;5008245;28;20628;-88
2022/08/12 06:18:06;;;;;;;7.25;3.80;;;;;;;22.48;37.92;100133.97;5021369;28;20470;-87
2022/08/12 06:20:42;;;;;;;10.02;4.15;;;;;;;22.65;37.58;100132.56;4994055;28;20128;-84
2022/08/12 06:23:10;;;;;;;7.03;3.78;;;;;;;22.67;37.69;100135.88;5019210;28;20378;-86
2022/08/12 06:25:37;;;;;;;5.80;4.10;;;;;;;22.75;37.35;100132.97;5018352;28;20362;-84
2022/08/12 06:28:14;;;;;;;6.13;3.88;;;;;;;22.77;37.60;100130.06;4992301;28;20121;-87
2022/08/12 06:30:46;;;;;;;6.20;3.85;;;;;;;22.85;37.27;100135.25;4972606;28;20053;-86
2022/08/12 06:33:34;;;;;;;4.40;3.88;;;;;;;22.89;37.39;100132.97;5005885;28;20346;-86
2022/08/12 06:36:22;;;;;;;7.03;3.60;;;;;;;23.01;37.13;100130.50;4942756;28;20135;-88
2022/08/12 06:38:49;;;;;;;7.00;4.13;;;;;;;23.05;37.33;100132.59;5019807;28;20061;-84
2022/08/12 06:44:07;;;;;;;10.77;3.72;;;;;;;23.10;37.21;100124.66;4993648;28;20060;-86
2022/08/12 06:46:38;;;;;;;5.20;3.63;;;;;;;23.17;37.12;100136.28;5002625;28;20397;-88
2022/08/12 06:49:07;;;;;;;6.05;4.05;;;;;;;23.24;37.15;100121.91;5003538;28;20556;-88
2022/08/12 06:51:34;;;;;;;4.68;3.60;;;;;;;23.26;37.19;100117.94;5022514;28;20637;-87
2022/08/12 06:54:02;;;;;;;6.68;3.85;;;;;;;23.34;36.60;100125.03;4984983;28;20450;-87
2022/08/12 06:56:29;;;;;;;8.20;3.65;;;;;;;23.39;36.78;100122.50;5020899;28;20041;-88
2022/08/12 06:59:16;;;;;;;5.15;4.25;;;;;;;23.43;36.54;100117.47;4989214;28;20134;-86
2022/08/12 07:01:43;;;;;;;6.97;3.47;;;;;;;23.50;36.70;100121.84;5007834;28;20048;-87
2022/08/12 07:04:18;;;;;;;7.65;4.32;;;;;;;23.54;36.90;100114.94;5020419;28;20053;-87
2022/08/12 07:07:05;;;;;;;6.60;3.50;;;;;;;23.56;36.65;100103.88;4954415;28;20055;-86
2022/08/12 07:09:32;;;;;;;5.55;3.65;;;;;;;23.59;36.96;100107.00;5003886;28;20042;-86
2022/08/12 07:12:20;;;;;;;7.50;3.83;;;;;;;23.66;36.63;100108.84;4987422;28;20103;-85
2022/08/12 07:14:50;;;;;;;6.20;4.00;;;;;;;23.69;36.34;100103.03;5021843;28;20412;-85
2022/08/12 07:17:16;;;;;;;6.93;3.35;;;;;;;23.72;36.81;100095.31;5018554;28;20050;-85
2022/08/12 07:19:45;;;;;;;4.60;3.72;;;;;;;23.82;36.31;100102.97;5021379;28;20504;-85
2022/08/12 07:22:13;;;;;;;6.47;3.33;;;;;;;23.85;36.18;100105.25;5016741;28;20133;-86
2022/08/12 07:24:41;;;;;;;7.43;3.78;;;;;;;23.82;36.26;100101.09;5022416;28;20497;-85
2022/08/12 07:27:07;;;;;;;6.30;3.28;;;;;;;23.81;36.45;100098.59;5021389;28;20045;-87
2022/08/12 07:29:35;;;;;;;8.60;4.60;;;;;;;23.86;36.12;100089.81;4989941;28;20042;-87
2022/08/12 07:32:23;;;;;;;4.65;3.38;;;;;;;23.88;36.18;100098.56;4983494;28;20123;-86
2022/08/12 07:34:53;;;;;;;5.57;3.38;;;;;;;23.96;36.00;100091.00;5018649;28;20085;-86
2022/08/12 07:37:20;;;;;;;7.97;3.60;;;;;;;24.03;36.10;100093.69;5014376;28;20049;-86
2022/08/12 07:39:49;;;;;;;5.03;2.95;;;;;;;24.09;35.98;100092.81;5014891;28;20476;-84
2022/08/12 07:42:27;;;;;;;5.85;3.10;;;;;;;24.15;35.82;100097.38;4997667;28;20052;-83
2022/08/12 07:44:55;;;;;;;3.53;2.85;;;;;;;24.21;36.02;100092.94;4979327;28;20563;-83
2022/08/12 07:47:22;;;;;;;4.53;2.90;;;;;;;24.25;36.06;100095.00;5020517;28;20671;-84
2022/08/12 07:49:49;;;;;;;6.50;3.45;;;;;;;24.29;35.71;100086.44;5020338;28;20081;-83
2022/08/12 07:52:37;;;;;;;3.80;3.45;;;;;;;24.34;35.96;100089.31;4992134;28;20128;-83
2022/08/12 07:55:05;;;;;;;5.18;3.10;;;;;;;24.38;35.75;100093.25;4986328;28;20544;-83
2022/08/12 07:57:34;;;;;;;9.45;2.95;;;;;;;24.43;35.65;100088.84;4985989;28;20416;-83
2022/08/12 08:00:04;;;;;;;4.05;2.85;;;;;;;24.46;35.03;100088.41;5003268;28;20041;-84
2022/08/12 08:02:35;;;;;;;3.97;2.40;;;;;;;24.48;35.12;100082.78;5003263;28;20137;-83
2022/08/12 08:05:03;;;;;;;5.55;3.15;;;;;;;24.51;35.43;100084.22;5003152;28;20044;-82
2022/08/12 08:07:30;;;;;;;4.15;2.88;;;;;;;24.52;35.49;100085.88;5024885;28;20045;-83
2022/08/12 08:09:59;;;;;;;5.53;3.00;;;;;;;24.55;35.46;100082.72;4986197;28;20848;-83
2022/08/12 08:15:15;;;;;;;3.90;2.75;;;;;;;24.56;34.70;100095.25;5001109;28;20041;-83
2022/08/12 08:17:56;;;;;;;4.95;2.90;;;;;;;24.52;34.21;100091.28;5036133;28;20382;-84
2022/08/12 08:20:27;;;;;;;5.65;3.00;;;;;;;24.59;34.53;100084.75;5019516;28;20045;-84
2022/08/12 08:22:58;;;;;;;5.65;2.92;;;;;;;24.62;34.36;100078.06;5022323;28;20052;-84
2022/08/12 08:25:31;;;;;;;4.32;3.05;;;;;;;24.67;34.21;100084.47;4983659;28;20379;-83
2022/08/12 08:28:05;;;;;;;4.35;2.85;;;;;;;24.72;34.24;100081.09;4985631;28;20053;-84
2022/08/12 08:30:33;;;;;;;3.60;2.60;;;;;;;24.77;34.29;100072.28;4987976;28;20048;-83
2022/08/12 08:32:59;;;;;;;3.90;2.53;;;;;;;24.83;34.07;100068.66;5034809;28;20434;-84
2022/08/12 08:35:27;;;;;;;4.22;3.17;;;;;;;24.84;34.30;100078.50;5007632;28;20497;-84
2022/08/12 08:38:16;;;;;;;4.65;2.97;;;;;;;24.90;33.93;100074.88;4972523;28;20259;-83
2022/08/12 08:44:09;;;;;;;4.68;2.90;;;;;;;24.98;34.02;100069.16;4960733;28;20503;-86
2022/08/12 08:46:39;;;;;;;3.97;2.83;;;;;;;25.04;33.84;100076.41;4997506;28;20470;-88
2022/08/12 08:49:06;;;;;;;4.07;2.83;;;;;;;25.07;33.65;100078.69;4992599;28;20390;-88
2022/08/12 08:51:33;;;;;;;3.97;2.72;;;;;;;25.09;33.45;100070.31;5019716;28;20041;-87
2022/08/12 08:54:02;;;;;;;3.17;2.70;;;;;;;25.09;33.41;100076.56;4990504;28;20045;-87
2022/08/12 08:56:29;;;;;;;3.85;2.70;;;;;;;25.14;32.85;100078.63;5055532;28;20099;-88
2022/08/12 08:59:00;;;;;;;4.35;2.75;;;;;;;25.13;32.97;100074.22;5036365;28;20405;-88
2022/08/12 09:01:30;;;;;;;5.50;2.80;;;;;;;25.11;33.30;100068.19;5008619;28;20041;-88
2022/08/12 09:04:19;;;;;;;5.80;3.17;;;;;;;25.16;33.00;100071.06;5015174;28;20069;-88
2022/08/12 09:07:06;;;;;;;3.40;2.90;;;;;;;25.15;32.83;100066.69;4959330;28;20469;-88
2022/08/12 09:09:54;;;;;;;3.78;2.65;;;;;;;25.18;32.77;100074.41;5003218;28;20077;-84
2022/08/12 09:15:24;;;;;;;4.15;2.55;;;;;;;25.15;32.49;100069.41;4977564;28;20115;-83
2022/08/12 09:18:11;;;;;;;3.00;2.60;;;;;;;25.14;31.94;100075.91;4998536;28;20481;-83
2022/08/12 09:20:40;;;;;;;3.20;2.70;;;;;;;25.20;31.73;100076.91;5004761;28;20072;-84
2022/08/12 09:23:10;;;;;;;8.75;2.72;;;;;;;25.22;32.05;100078.34;5018977;28;20137;-84
2022/08/12 09:25:57;;;;;;;4.75;2.70;;;;;;;25.24;32.17;100076.25;4987788;28;20054;-84
2022/08/12 09:28:31;;;;;;;2.92;2.67;;;;;;;25.20;31.40;100064.16;5019959;28;20049;-84
2022/08/12 09:30:58;;;;;;;3.50;2.75;;;;;;;25.23;31.64;100060.97;4996775;28;20037;-84
2022/08/12 09:33:32;;;;;;;2.40;2.10;;;;;;;25.26;31.70;100060.50;4996865;28;20567;-84
2022/08/12 09:36:20;;;;;;;;;;;;;;;25.12;31.89;100046.22;4984428;28;20115;-85
2022/08/12 09:39:07;;;;;;;5.75;2.70;;;;;;;25.33;32.20;100050.41;4979470;28;19921;-84
2022/08/12 09:47:51;;;;;;;4.78;2.83;;;;;;;25.30;29.93;100041.88;4970622;28;20049;-83
2022/08/12 09:50:26;;;;;;;3.10;2.55;;;;;;;25.32;30.15;100042.50;5004258;28;20168;-85
2022/08/12 09:53:10;;;;;;;5.85;3.15;;;;;;;25.21;30.20;100049.50;5005095;28;20075;-84
2022/08/12 09:55:47;;;;;;;4.20;2.70;;;;;;;25.33;30.78;100019.66;4966409;28;20429;-85
2022/08/12 09:58:36;;;;;;;5.97;2.97;;;;;;;25.37;30.13;100026.31;4990285;28;20409;-84
2022/08/12 10:01:25;;;;;;;3.75;2.38;;;;;;;25.40;29.54;100031.31;4961605;28;20033;-84
2022/08/12 10:04:03;;;;;;;2.40;2.20;;;;;;;25.45;29.73;100034.16;5000127;28;20068;-85
2022/08/12 10:06:31;;;;;;;6.32;2.67;;;;;;;25.45;29.46;100039.59;4997218;28;20046;-84
2022/08/12 10:09:06;;;;;;;4.97;3.00;;;;;;;25.45;29.19;100027.91;5005277;28;20045;-84
2022/08/12 10:14:40;;;;;;;5.30;2.60;;;;;;;25.55;30.40;100007.25;4994831;28;20107;-82
2022/08/12 10:17:20;;;;;;;5.53;2.65;;;;;;;25.54;29.87;100021.06;4989130;28;20053;-83
2022/08/12 10:19:48;;;;;;;3.13;2.50;;;;;;;25.52;29.63;100015.06;5020080;28;20053;-83
2022/08/12 10:22:19;;;;;;;3.92;2.53;;;;;;;25.59;29.75;99993.19;5004461;28;20048;-84
2022/08/12 10:30:57;;;;;;;7.60;3.05;;;;;;;25.63;29.64;99989.78;4983814;28;20045;-83
2022/08/12 10:33:29;;;;;;;6.30;2.90;;;;;;;25.62;29.35;99982.69;5002676;28;20064;-81
2022/08/12 10:36:00;;;;;;;4.72;2.50;;;;;;;25.62;29.46;99998.16;4987782;28;20149;-84
2022/08/12 10:38:28;;;;;;;4.38;2.65;;;;;;;25.63;29.54;99989.78;4984166;28;20382;-83
2022/08/12 10:44:12;;;;;;;13.75;3.00;;;;;;;25.74;30.14;100001.75;4934202;28;20061;-84
2022/08/12 10:46:46;;;;;;;3.05;2.75;;;;;;;25.73;29.84;99981.91;5031016;28;20041;-83
2022/08/12 10:49:18;;;;;;;4.93;2.95;;;;;;;25.75;30.29;99970.81;4989678;28;20045;-84
2022/08/12 10:52:05;;;;;;;5.47;2.85;;;;;;;25.80;29.97;99986.41;5002489;28;20054;-84
2022/08/12 10:54:54;;;;;;;7.10;3.03;;;;;;;25.80;29.90;99978.25;4938777;28;20490;-82
2022/08/12 10:57:25;;;;;;;6.20;3.05;;;;;;;25.80;30.05;99975.53;5000761;28;20523;-83
2022/08/12 11:00:13;;;;;;;2.70;2.50;;;;;;;25.79;30.21;99977.41;4986258;28;20539;-82
2022/08/12 11:02:58;;;;;;;5.13;3.00;;;;;;;25.87;30.53;99970.84;4984609;28;20052;-83
2022/08/12 11:05:46;;;;;;;4.75;2.85;;;;;;;25.89;30.11;99957.84;4969853;28;20064;-83
2022/08/12 11:08:36;;;;;;;3.40;2.55;;;;;;;25.96;30.38;99958.56;4984421;28;20050;-82
2022/08/12 11:11:10;;;;;;;7.50;2.85;;;;;;;25.99;29.95;99952.66;4985482;28;20041;-82
2022/08/12 11:13:45;;;;;;;3.38;2.70;;;;;;;26.02;29.48;99954.09;4988632;28;20052;-83
2022/08/12 11:16:17;;;;;;;3.55;2.92;;;;;;;26.03;29.15;99961.16;4987682;28;20045;-85
2022/08/12 11:18:49;;;;;;;4.20;2.50;;;;;;;26.06;29.26;99960.72;5018284;28;20125;-85
2022/08/12 11:21:22;;;;;;;3.53;2.65;;;;;;;26.07;29.18;99957.75;5016472;28;20041;-85
2022/08/12 11:24:09;;;;;;;3.75;2.33;;;;;;;26.09;29.18;99946.66;4991913;28;20104;-86
2022/08/12 11:26:56;;;;;;;2.90;2.38;;;;;;;26.14;29.41;99950.31;4991740;28;20057;-85
2022/08/12 11:29:28;;;;;;;;;;;;;;;26.03;29.31;99947.56;5001057;28;20775;-85
2022/08/12 11:32:16;;;;;;;2.72;2.50;;;;;;;26.11;28.55;99955.41;4979564;28;20039;-86
2022/08/12 11:34:43;;;;;;;3.13;2.38;;;;;;;26.11;29.05;99945.34;5041499;28;20123;-84
2022/08/12 11:37:24;;;;;;;4.60;2.40;;;;;;;26.15;28.90;99935.63;5008493;28;20100;-85
2022/08/12 11:39:54;;;;;;;7.30;2.92;;;;;;;26.22;28.99;99916.47;5019016;28;20065;-86
2022/08/12 11:42:35;;;;;;;5.53;2.38;;;;;;;26.23;28.59;99914.56;5015040;28;20493;-86
2022/08/12 11:45:11;;;;;;;9.15;2.28;;;;;;;26.24;28.17;99902.63;4990706;28;20037;-85
2022/08/12 11:47:42;;;;;;;3.67;2.67;;;;;;;26.32;28.73;99921.31;5017488;28;20474;-86
2022/08/12 11:50:10;;;;;;;2.40;2.13;;;;;;;26.37;28.83;99913.28;5021282;28;20089;-86
2022/08/12 11:52:45;;;;;;;2.72;2.22;;;;;;;26.42;28.81;99919.66;5016528;28;20133;-85
2022/08/12 11:55:23;;;;;;;4.30;2.30;;;;;;;26.44;27.72;99905.81;5001903;28;20049;-85
2022/08/12 11:57:55;;;;;;;3.08;2.05;;;;;;;26.43;27.48;99904.16;5017087;28;20042;-85
2022/08/12 12:00:42;;;;;;;5.28;2.47;;;;;;;26.39;27.65;99917.41;5001630;28;20041;-86
2022/08/12 12:03:29;;;;;;;3.72;2.10;;;;;;;26.36;27.27;99919.81;4984460;28;20046;-83
2022/08/12 12:06:16;;;;;;;3.38;2.20;;;;;;;26.35;27.88;99913.50;5003115;28;20474;-82
2022/08/12 12:08:44;;;;;;;3.30;1.75;;;;;;;26.42;27.20;99925.09;5011469;28;20033;-83
2022/08/12 12:11:17;;;;;;;6.22;2.30;;;;;;;26.46;27.13;99928.19;5003571;28;20041;-82
2022/08/12 12:13:45;;;;;;;2.72;2.00;;;;;;;26.50;27.08;99910.31;5016020;28;20056;-82
2022/08/12 12:16:32;;;;;;;6.22;2.33;;;;;;;26.51;26.28;99911.13;4988159;28;20489;-82
2022/08/12 12:19:07;;;;;;;4.03;2.30;;;;;;;26.53;26.44;99889.97;5020414;28;20382;-82
2022/08/12 12:21:37;;;;;;;5.05;2.20;;;;;;;26.58;26.70;99903.69;5021478;28;20164;-82
2022/08/12 12:24:17;;;;;;;3.17;1.95;;;;;;;26.61;26.87;99900.47;4990376;28;20135;-82
2022/08/12 12:26:52;;;;;;;4.03;2.20;;;;;;;26.67;26.76;99888.66;5009428;28;20049;-82
2022/08/12 12:29:29;;;;;;;3.65;1.90;;;;;;;26.71;26.42;99889.81;5023491;28;20137;-82
2022/08/12 12:32:18;;;;;;;4.10;1.92;;;;;;;26.77;26.44;99885.31;4986768;28;20405;-82
2022/08/12 12:34:45;;;;;;;5.80;2.35;;;;;;;26.82;26.73;99888.13;5006997;28;20041;-82
2022/08/12 12:37:32;;;;;;;4.10;1.80;;;;;;;26.85;26.85;99904.81;5027640;28;20431;-82
2022/08/12 12:40:19;;;;;;;3.13;2.20;;;;;;;26.88;26.24;99887.16;4991982;28;20095;-82
2022/08/12 12:42:46;;;;;;;3.65;2.53;;;;;;;26.86;26.16;99875.66;5004184;28;20046;-82
2022/08/12 12:45:25;;;;;;;2.17;1.90;;;;;;;26.89;26.71;99872.47;4990859;28;20508;-83
2022/08/12 12:47:59;;;;;;;4.65;2.40;;;;;;;26.91;26.95;99875.78;5019017;28;20053;-83
2022/08/12 12:50:33;;;;;;;2.35;2.03;;;;;;;26.92;27.08;99866.53;5023285;28;20140;-82
2022/08/12 12:53:17;;;;;;;4.25;2.22;;;;;;;26.94;26.47;99861.66;5004591;28;20124;-85
2022/08/12 12:56:04;;;;;;;5.60;1.83;;;;;;;26.97;26.76;99869.38;4951378;28;20221;-82
2022/08/12 12:58:31;;;;;;;5.07;2.10;;;;;;;27.03;26.87;99871.09;4985773;28;20038;-83
2022/08/12 13:01:00;;;;;;;4.50;2.40;;;;;;;27.06;26.57;99881.53;4998880;28;20539;-82
2022/08/12 13:03:52;;;;;;;3.97;2.15;;;;;;;27.10;26.16;99861.97;4979215;28;20147;-82
2022/08/12 13:06:28;;;;;;;4.28;2.20;;;;;;;27.10;25.68;99849.16;4977479;28;20090;-82
2022/08/12 13:08:58;;;;;;;3.55;2.33;;;;;;;27.07;26.12;99860.53;4975383;28;20046;-82
2022/08/12 13:11:32;;;;;;;4.03;2.42;;;;;;;27.14;25.96;99854.94;4984234;28;20057;-82
2022/08/12 13:14:07;;;;;;;3.50;2.15;;;;;;;27.16;25.88;99845.47;4986212;28;20045;-83
2022/08/12 13:16:53;;;;;;;2.30;2.05;;;;;;;27.21;26.33;99850.22;4985288;28;20045;-82
2022/08/12 13:19:20;;;;;;;2.63;1.90;;;;;;;27.24;26.38;99857.91;5004748;28;20064;-82
2022/08/12 13:22:19;;;;;;;3.13;1.92;;;;;;;27.25;26.57;99852.22;5018176;28;20045;-83
2022/08/12 13:24:51;;;;;;;4.43;2.30;;;;;;;27.26;26.05;99837.50;4985585;28;20037;-82
2022/08/12 13:27:22;;;;;;;;;;;;;;;27.18;26.14;99834.34;5029683;28;20046;-82
2022/08/12 13:29:57;;;;;;;3.75;2.38;;;;;;;27.34;26.59;99849.06;5019564;28;20078;-87
2022/08/12 13:32:31;;;;;;;5.13;2.35;;;;;;;27.39;26.09;99841.81;4978768;28;20132;-86
2022/08/12 13:34:59;;;;;;;4.55;2.30;;;;;;;27.36;26.33;99847.75;4982301;28;20402;-82
2022/08/12 13:38:03;;;;;;;4.53;2.00;;;;;;;27.20;25.76;99832.22;4998582;28;20069;-82
2022/08/12 13:40:31;;;;;;;6.60;2.35;;;;;;;27.22;26.19;99841.81;5002003;28;20057;-82
2022/08/12 13:43:00;;;;;;;7.32;2.22;;;;;;;27.20;26.03;99852.13;5000980;28;20127;-82
2022/08/12 13:45:29;;;;;;;4.00;2.15;;;;;;;27.18;26.15;99846.06;5021633;28;20069;-82
2022/08/12 13:48:01;;;;;;;3.92;2.13;;;;;;;27.14;25.98;99839.41;5022965;28;20056;-82
2022/08/12 13:50:31;;;;;;;2.87;2.03;;;;;;;27.13;26.48;99845.13;4997801;28;20323;-80
2022/08/12 13:53:09;;;;;;;3.47;1.98;;;;;;;27.19;26.69;99834.09;5006090;28;20445;-79
2022/08/12 13:55:55;;;;;;;4.35;2.58;;;;;;;27.32;26.51;99832.13;4954158;28;20378;-80
2022/08/12 13:58:27;;;;;;;3.50;1.90;;;;;;;27.41;26.28;99836.94;5009351;28;20128;-80